sensor_id;sensor_type;location;lat;lon;timestamp;pressure;altitude;pressure_sealevel;temperature;humidity
42247;BME280;27913;42.722;23.268;2023-04-21T07:01:25;94629.69;;;11.19;77.83
42247;BME280;27913;42.722;23.268;2023-04-21T07:03:50;94544.19;;;10.74;76.85
42247;BME280;27913;42.722;23.268;2023-04-21T07:06:16;94517.66;;;10.69;76.63
42247;BME280;27913;42.722;23.268;2023-04-21T07:08:41;94613.28;;;11.37;75.52
42247;BME280;27913;42.722;23.268;2023-04-21T07:11:07;94620.97;;;11.39;75.36
42247;BME280;27913;42.722;23.268;2023-04-21T07:13:32;94646.13;;;11.48;75.49
42247;BME280;27913;42.722;23.268;2023-04-21T07:17:14;94419.47;;;10.21;75.91
42247;BME280;27913;42.722;23.268;2023-04-21T07:19:39;94546.47;;;11.11;74.86
42247;BME280;27913;42.722;23.268;2023-04-21T07:22:04;94553.56;;;11.24;75.33
42247;BME280;27913;42.722;23.268;2023-04-21T07:24:30;94521.75;;;10.98;74.32
42247;BME280;27913;42.722;23.268;2023-04-21T07:26:56;94624.25;;;11.81;74.68
42247;BME280;27913;42.722;23.268;2023-04-21T07:29:22;94640.66;;;11.90;74.16
42247;BME280;27913;42.722;23.268;2023-04-21T07:31:48;94606.41;;;11.63;73.46
42247;BME280;27913;42.722;23.268;2023-04-21T07:34:14;94633.16;;;11.94;73.90
42247;BME280;27913;42.722;23.268;2023-04-21T07:36:39;94633.97;;;11.94;73.42
42247;BME280;27913;42.722;23.268;2023-04-21T07:39:05;94596.66;;;11.77;72.79
42247;BME280;27913;42.722;23.268;2023-04-21T07:41:30;94455.78;;;11.00;72.87
42247;BME280;27913;42.722;23.268;2023-04-21T07:43:56;94616.69;;;12.05;72.84
42247;BME280;27913;42.722;23.268;2023-04-21T07:46:21;94534.72;;;11.61;73.35
42247;BME280;27913;42.722;23.268;2023-04-21T07:48:50;94649.13;;;12.33;71.63
42247;BME280;27913;42.722;23.268;2023-04-21T07:51:16;94643.84;;;12.40;71.87
42247;BME280;27913;42.722;23.268;2023-04-21T07:53:42;94598.28;;;12.12;71.97
42247;BME280;27913;42.722;23.268;2023-04-21T07:56:08;94645.63;;;12.53;71.49
42247;BME280;27913;42.722;23.268;2023-04-21T07:58:33;94650.88;;;12.53;71.14
42247;BME280;27913;42.722;23.268;2023-04-21T08:00:59;94518.25;;;11.79;71.78
42247;BME280;27913;42.722;23.268;2023-04-21T08:03:30;94635.44;;;12.63;71.37
42247;BME280;27913;42.722;23.268;2023-04-21T08:05:58;94648.63;;;12.63;70.79
42247;BME280;27913;42.722;23.268;2023-04-21T08:08:23;94658.16;;;12.71;70.43
42247;BME280;27913;42.722;23.268;2023-04-21T08:10:49;94538.66;;;12.04;70.19
42247;BME280;27913;42.722;23.268;2023-04-21T08:13:14;94602.25;;;12.42;70.25
42247;BME280;27913;42.722;23.268;2023-04-21T08:15:40;94615.97;;;12.64;69.55
42247;BME280;27913;42.722;23.268;2023-04-21T08:18:06;94637.19;;;12.83;69.71
42247;BME280;27913;42.722;23.268;2023-04-21T08:20:32;94645.47;;;12.93;69.51
42247;BME280;27913;42.722;23.268;2023-04-21T08:22:57;94529.66;;;12.32;68.91
42247;BME280;27913;42.722;23.268;2023-04-21T08:25:22;94639.75;;;12.97;68.54
42247;BME280;27913;42.722;23.268;2023-04-21T08:27:48;94579.00;;;12.71;67.81
42247;BME280;27913;42.722;23.268;2023-04-21T08:30:13;94525.78;;;12.42;67.02
42247;BME280;27913;42.722;23.268;2023-04-21T08:32:39;94626.75;;;13.02;66.86
42247;BME280;27913;42.722;23.268;2023-04-21T08:35:05;94615.81;;;12.98;67.43
42247;BME280;27913;42.722;23.268;2023-04-21T08:37:31;94627.94;;;13.06;67.54
42247;BME280;27913;42.722;23.268;2023-04-21T08:39:56;94518.44;;;12.44;67.33
42247;BME280;27913;42.722;23.268;2023-04-21T08:42:22;94508.69;;;12.51;68.20
42247;BME280;27913;42.722;23.268;2023-04-21T08:44:47;94623.72;;;13.31;67.12
42247;BME280;27913;42.722;23.268;2023-04-21T08:47:14;94616.84;;;13.29;67.55
42247;BME280;27913;42.722;23.268;2023-04-21T08:49:40;94621.91;;;13.31;66.85
42247;BME280;27913;42.722;23.268;2023-04-21T08:52:11;94615.75;;;13.37;66.52
42247;BME280;27913;42.722;23.268;2023-04-21T08:54:37;94618.00;;;13.40;66.83
42247;BME280;27913;42.722;23.268;2023-04-21T08:57:03;94619.00;;;13.39;66.82
42247;BME280;27913;42.722;23.268;2023-04-21T08:59:29;94621.41;;;13.41;66.80
42247;BME280;27913;42.722;23.268;2023-04-21T09:04:34;94602.44;;;13.58;66.52
42247;BME280;27913;42.722;23.268;2023-04-21T09:06:59;94609.06;;;13.67;64.65
42247;BME280;27913;42.722;23.268;2023-04-21T09:09:25;94607.94;;;13.56;64.45
42247;BME280;27913;42.722;23.268;2023-04-21T09:11:55;94589.69;;;13.48;65.39
42247;BME280;27913;42.722;23.268;2023-04-21T09:14:31;94541.66;;;13.32;65.09
42247;BME280;27913;42.722;23.268;2023-04-21T09:17:02;94570.78;;;13.51;63.06
42247;BME280;27913;42.722;23.268;2023-04-21T09:19:29;94600.59;;;13.84;62.75
42247;BME280;27913;42.722;23.268;2023-04-21T09:21:59;94602.22;;;13.85;61.93
42247;BME280;27913;42.722;23.268;2023-04-21T09:24:26;94596.81;;;13.98;61.35
42247;BME280;27913;42.722;23.268;2023-04-21T09:26:52;94436.59;;;12.90;59.89
42247;BME280;27913;42.722;23.268;2023-04-21T09:29:25;94500.09;;;13.46;61.85
42247;BME280;27913;42.722;23.268;2023-04-21T09:31:51;94476.91;;;13.48;60.39
42247;BME280;27913;42.722;23.268;2023-04-21T09:34:24;94578.69;;;14.21;60.35
42247;BME280;27913;42.722;23.268;2023-04-21T09:37:01;94567.06;;;14.22;60.79
42247;BME280;27913;42.722;23.268;2023-04-21T09:39:31;94574.13;;;14.28;60.77
42247;BME280;27913;42.722;23.268;2023-04-21T09:41:57;94495.75;;;13.77;60.54
42247;BME280;27913;42.722;23.268;2023-04-21T09:44:26;94497.16;;;13.80;60.68
42247;BME280;27913;42.722;23.268;2023-04-21T09:46:57;94570.75;;;14.40;59.47
42247;BME280;27913;42.722;23.268;2023-04-21T09:49:28;94517.81;;;14.09;58.62
42247;BME280;27913;42.722;23.268;2023-04-21T09:51:58;94563.75;;;14.45;58.50
42247;BME280;27913;42.722;23.268;2023-04-21T10:08:58;94477.44;;;13.38;60.46
42247;BME280;27913;42.722;23.268;2023-04-21T10:11:25;94355.06;;;12.82;61.21
42247;BME280;27913;42.722;23.268;2023-04-21T10:13:51;94469.31;;;13.59;60.20
42247;BME280;27913;42.722;23.268;2023-04-21T10:16:17;94453.75;;;13.50;60.01
42247;BME280;27913;42.722;23.268;2023-04-21T10:18:43;94405.75;;;13.35;59.26
42247;BME280;27913;42.722;23.268;2023-04-21T10:21:11;94419.97;;;13.34;58.59
42247;BME280;27913;42.722;23.268;2023-04-21T10:23:41;94564.06;;;14.37;56.90
42247;BME280;27913;42.722;23.268;2023-04-21T10:26:19;94420.69;;;13.67;57.20
42247;BME280;27913;42.722;23.268;2023-04-21T10:28:59;94551.91;;;14.48;58.71
42247;BME280;27913;42.722;23.268;2023-04-21T10:36:49;94545.53;;;14.56;58.27
42247;BME280;27913;42.722;23.268;2023-04-21T10:39:33;94503.59;;;14.22;55.71
42247;BME280;27913;42.722;23.268;2023-04-21T10:44:50;94548.34;;;14.73;55.78
42247;BME280;27913;42.722;23.268;2023-04-21T10:47:27;94551.19;;;14.90;55.05
42247;BME280;27913;42.722;23.268;2023-04-21T10:49:57;94576.47;;;15.05;53.16
42247;BME280;27913;42.722;23.268;2023-04-21T10:52:32;94557.59;;;15.13;54.11
42247;BME280;27913;42.722;23.268;2023-04-21T10:57:23;94559.09;;;15.09;53.12
42247;BME280;27913;42.722;23.268;2023-04-21T10:59:49;94560.44;;;15.00;53.16
42247;BME280;27913;42.722;23.268;2023-04-21T11:02:16;94518.72;;;14.83;52.74
42247;BME280;27913;42.722;23.268;2023-04-21T11:04:43;94454.22;;;14.65;51.96
42247;BME280;27913;42.722;23.268;2023-04-21T11:09:41;94559.16;;;15.45;52.15
42247;BME280;27913;42.722;23.268;2023-04-21T11:12:09;94412.16;;;14.45;50.51
42247;BME280;27913;42.722;23.268;2023-04-21T11:14:38;94466.53;;;14.71;50.49
42247;BME280;27913;42.722;23.268;2023-04-21T11:17:16;94483.78;;;15.05;48.53
42247;BME280;27913;42.722;23.268;2023-04-21T11:19:47;94536.00;;;15.28;48.20
42247;BME280;27913;42.722;23.268;2023-04-21T11:22:15;94542.44;;;15.44;50.74
42247;BME280;27913;42.722;23.268;2023-04-21T11:24:44;94533.81;;;15.49;54.28
42247;BME280;27913;42.722;23.268;2023-04-21T11:27:10;94531.19;;;15.49;54.65
42247;BME280;27913;42.722;23.268;2023-04-21T11:29:37;94537.19;;;15.56;51.83
42247;BME280;27913;42.722;23.268;2023-04-21T11:32:05;94529.91;;;15.64;51.95
42247;BME280;27913;42.722;23.268;2023-04-21T11:34:31;94477.03;;;15.33;49.20
42247;BME280;27913;42.722;23.268;2023-04-21T11:36:56;94546.97;;;15.80;49.91
42247;BME280;27913;42.722;23.268;2023-04-21T11:39:22;94554.47;;;15.95;48.96
42247;BME280;27913;42.722;23.268;2023-04-21T11:41:49;94411.59;;;15.09;48.68
42247;BME280;27913;42.722;23.268;2023-04-21T11:44:41;94402.25;;;14.83;47.68
42247;BME280;27913;42.722;23.268;2023-04-21T11:47:18;94436.72;;;15.07;47.32
42247;BME280;27913;42.722;23.268;2023-04-21T11:49:50;94414.78;;;14.76;44.28
42247;BME280;27913;42.722;23.268;2023-04-21T11:52:29;94548.34;;;15.94;44.91
42247;BME280;27913;42.722;23.268;2023-04-21T11:57:29;94297.00;;;14.30;43.09
42247;BME280;27913;42.722;23.268;2023-04-21T12:00:04;94542.56;;;16.10;42.51
42247;BME280;27913;42.722;23.268;2023-04-21T12:02:36;94437.75;;;15.18;43.00
42247;BME280;27913;42.722;23.268;2023-04-21T12:05:06;94267.78;;;14.13;44.60
42247;BME280;27913;42.722;23.268;2023-04-21T12:07:38;94349.84;;;14.49;46.71
42247;BME280;27913;42.722;23.268;2023-04-21T12:10:16;94483.81;;;15.17;48.21
42247;BME280;27913;42.722;23.268;2023-04-21T12:12:42;94484.63;;;15.29;49.09
42247;BME280;27913;42.722;23.268;2023-04-21T12:15:09;94527.84;;;16.02;47.21
42247;BME280;27913;42.722;23.268;2023-04-21T12:17:59;94447.16;;;15.74;46.18
42247;BME280;27913;42.722;23.268;2023-04-21T12:20:27;94548.34;;;16.60;46.63
42247;BME280;27913;42.722;23.268;2023-04-21T12:22:53;94534.19;;;16.54;47.37
42247;BME280;27913;42.722;23.268;2023-04-21T12:25:20;94336.41;;;15.23;47.29
42247;BME280;27913;42.722;23.268;2023-04-21T12:27:57;94494.16;;;16.14;47.84
42247;BME280;27913;42.722;23.268;2023-04-21T12:30:23;94555.81;;;16.34;48.34
42247;BME280;27913;42.722;23.268;2023-04-21T12:32:49;94548.16;;;16.49;48.20
42247;BME280;27913;42.722;23.268;2023-04-21T12:35:16;94542.06;;;16.37;47.27
42247;BME280;27913;42.722;23.268;2023-04-21T12:37:43;94542.81;;;16.61;45.89
42247;BME280;27913;42.722;23.268;2023-04-21T12:40:09;94534.28;;;16.18;48.10
42247;BME280;27913;42.722;23.268;2023-04-21T12:42:35;94545.59;;;15.89;48.97
42247;BME280;27913;42.722;23.268;2023-04-21T12:45:01;94554.91;;;15.56;50.02
42247;BME280;27913;42.722;23.268;2023-04-21T12:47:27;94464.31;;;14.99;51.84
42247;BME280;27913;42.722;23.268;2023-04-21T12:49:52;94447.72;;;14.92;52.14
42247;BME280;27913;42.722;23.268;2023-04-21T12:52:18;94528.47;;;15.25;52.98
42247;BME280;27913;42.722;23.268;2023-04-21T12:54:43;94409.59;;;14.69;51.05
42247;BME280;27913;42.722;23.268;2023-04-21T12:57:09;94522.06;;;15.45;49.42
42247;BME280;27913;42.722;23.268;2023-04-21T12:59:34;94525.75;;;15.44;49.99
42247;BME280;27913;42.722;23.268;2023-04-21T13:02:00;94539.34;;;15.48;49.04
42247;BME280;27913;42.722;23.268;2023-04-21T13:04:26;94530.25;;;15.55;49.83
42247;BME280;27913;42.722;23.268;2023-04-21T13:06:51;94473.66;;;15.14;49.75
42247;BME280;27913;42.722;23.268;2023-04-21T13:09:17;94519.41;;;15.45;50.22
42247;BME280;27913;42.722;23.268;2023-04-21T13:11:42;94317.38;;;14.30;49.87
42247;BME280;27913;42.722;23.268;2023-04-21T13:14:08;94464.00;;;15.31;50.40
42247;BME280;27913;42.722;23.268;2023-04-21T13:16:33;94513.22;;;15.63;47.10
42247;BME280;27913;42.722;23.268;2023-04-21T13:18:59;94511.47;;;15.45;48.20
42247;BME280;27913;42.722;23.268;2023-04-21T13:21:24;94521.38;;;15.38;48.86
42247;BME280;27913;42.722;23.268;2023-04-21T13:23:50;94458.84;;;15.13;48.75
42247;BME280;27913;42.722;23.268;2023-04-21T13:26:16;94507.69;;;15.53;49.20
42247;BME280;27913;42.722;23.268;2023-04-21T13:28:41;94502.13;;;15.30;49.91
42247;BME280;27913;42.722;23.268;2023-04-21T13:31:07;94511.34;;;15.52;49.80
42247;BME280;27913;42.722;23.268;2023-04-21T13:33:32;94512.63;;;15.61;48.70
42247;BME280;27913;42.722;23.268;2023-04-21T13:36:02;94472.66;;;15.39;48.48
42247;BME280;27913;42.722;23.268;2023-04-21T13:38:28;94375.34;;;14.86;48.56
42247;BME280;27913;42.722;23.268;2023-04-21T13:40:54;94498.78;;;15.71;48.99
42247;BME280;27913;42.722;23.268;2023-04-21T13:43:20;94503.53;;;15.81;48.70
42247;BME280;27913;42.722;23.268;2023-04-21T13:45:45;94506.72;;;15.83;48.95
42247;BME280;27913;42.722;23.268;2023-04-21T13:48:12;94501.41;;;15.83;48.37
42247;BME280;27913;42.722;23.268;2023-04-21T13:50:37;94502.03;;;15.73;49.02
42247;BME280;27913;42.722;23.268;2023-04-21T13:53:03;94297.41;;;14.46;49.84
42247;BME280;27913;42.722;23.268;2023-04-21T13:55:29;94389.16;;;15.12;49.81
42247;BME280;27913;42.722;23.268;2023-04-21T13:57:55;94380.75;;;15.15;48.97
42247;BME280;27913;42.722;23.268;2023-04-21T14:00:21;94313.63;;;14.73;48.83
42247;BME280;27913;42.722;23.268;2023-04-21T14:02:46;94467.19;;;15.93;49.33
42247;BME280;27913;42.722;23.268;2023-04-21T14:05:12;94441.81;;;15.98;48.49
42247;BME280;27913;42.722;23.268;2023-04-21T14:07:38;94497.16;;;16.47;47.04
42247;BME280;27913;42.722;23.268;2023-04-21T14:10:04;94314.28;;;15.41;46.47
42247;BME280;27913;42.722;23.268;2023-04-21T14:12:30;94432.06;;;16.27;45.98
42247;BME280;27913;42.722;23.268;2023-04-21T14:14:55;94454.56;;;16.54;45.84
42247;BME280;27913;42.722;23.268;2023-04-21T14:17:21;94453.31;;;16.91;44.59
42247;BME280;27913;42.722;23.268;2023-04-21T14:19:47;94353.06;;;16.47;44.22
42247;BME280;27913;42.722;23.268;2023-04-21T14:22:14;94356.19;;;16.78;45.72
42247;BME280;27913;42.722;23.268;2023-04-21T14:24:40;94381.31;;;16.87;43.54
42247;BME280;27913;42.722;23.268;2023-04-21T14:27:05;94445.22;;;17.15;43.21
42247;BME280;27913;42.722;23.268;2023-04-21T14:29:31;94230.16;;;15.94;43.74
42247;BME280;27913;42.722;23.268;2023-04-21T14:31:56;94480.78;;;17.48;43.79
42247;BME280;27913;42.722;23.268;2023-04-21T14:34:24;94455.69;;;17.39;43.17
42247;BME280;27913;42.722;23.268;2023-04-21T14:36:52;94309.66;;;16.36;43.81
42247;BME280;27913;42.722;23.268;2023-04-21T14:39:18;94478.06;;;17.26;45.21
42247;BME280;27913;42.722;23.268;2023-04-21T14:41:44;94428.03;;;16.71;47.11
42247;BME280;27913;42.722;23.268;2023-04-21T14:44:09;94400.94;;;16.23;50.04
42247;BME280;27913;42.722;23.268;2023-04-21T14:46:35;94284.66;;;14.91;56.66
42247;BME280;27913;42.722;23.268;2023-04-21T14:49:07;94409.06;;;15.51;54.13
42247;BME280;27913;42.722;23.268;2023-04-21T14:51:32;94483.59;;;16.02;56.81
42247;BME280;27913;42.722;23.268;2023-04-21T14:53:58;94415.25;;;15.68;55.46
42247;BME280;27913;42.722;23.268;2023-04-21T14:56:24;94474.94;;;16.36;53.23
42247;BME280;27913;42.722;23.268;2023-04-21T14:58:49;94412.63;;;16.10;50.69
42247;BME280;27913;42.722;23.268;2023-04-21T15:01:15;94470.28;;;16.44;48.98
42247;BME280;27913;42.722;23.268;2023-04-21T15:03:41;94478.03;;;16.74;45.74
42247;BME280;27913;42.722;23.268;2023-04-21T15:06:06;94488.94;;;16.78;43.23
42247;BME280;27913;42.722;23.268;2023-04-21T15:08:32;94395.06;;;16.21;42.77
42247;BME280;27913;42.722;23.268;2023-04-21T15:10:58;94441.22;;;16.66;43.92
42247;BME280;27913;42.722;23.268;2023-04-21T15:13:23;94491.00;;;17.05;44.64
42247;BME280;27913;42.722;23.268;2023-04-21T15:15:49;94425.72;;;16.75;45.55
42247;BME280;27913;42.722;23.268;2023-04-21T15:18:16;94426.94;;;17.01;45.30
42247;BME280;27913;42.722;23.268;2023-04-21T15:20:42;94495.94;;;17.65;44.71
42247;BME280;27913;42.722;23.268;2023-04-21T15:23:12;94480.78;;;17.66;42.44
42247;BME280;27913;42.722;23.268;2023-04-21T15:25:38;94474.91;;;17.63;42.10
42247;BME280;27913;42.722;23.268;2023-04-21T15:28:04;94442.44;;;17.22;41.33
42247;BME280;27913;42.722;23.268;2023-04-21T15:30:31;94480.97;;;17.42;41.98
42247;BME280;27913;42.722;23.268;2023-04-21T15:32:57;94433.38;;;17.06;42.05
42247;BME280;27913;42.722;23.268;2023-04-21T15:35:22;94489.41;;;17.38;43.59
42247;BME280;27913;42.722;23.268;2023-04-21T15:37:48;94488.84;;;17.36;43.37
42247;BME280;27913;42.722;23.268;2023-04-21T15:40:13;94440.22;;;17.01;44.00
42247;BME280;27913;42.722;23.268;2023-04-21T15:42:39;94430.88;;;16.99;43.54
42247;BME280;27913;42.722;23.268;2023-04-21T15:45:05;94437.72;;;16.95;43.97
42247;BME280;27913;42.722;23.268;2023-04-21T15:47:30;94485.56;;;17.29;43.81
42247;BME280;27913;42.722;23.268;2023-04-21T15:49:56;94493.28;;;17.31;43.25
42247;BME280;27913;42.722;23.268;2023-04-21T15:52:21;94486.53;;;17.40;43.29
42247;BME280;27913;42.722;23.268;2023-04-21T15:54:47;94485.41;;;17.53;43.77
42247;BME280;27913;42.722;23.268;2023-04-21T15:57:13;94359.75;;;16.84;43.58
42247;BME280;27913;42.722;23.268;2023-04-21T15:59:39;94460.66;;;17.53;43.08
42247;BME280;27913;42.722;23.268;2023-04-21T16:02:05;94496.75;;;17.66;44.25
42247;BME280;27913;42.722;23.268;2023-04-21T16:04:30;94385.47;;;16.66;45.16
42247;BME280;27913;42.722;23.268;2023-04-21T16:06:55;94344.47;;;16.10;46.66
42247;BME280;27913;42.722;23.268;2023-04-21T16:09:21;94418.53;;;16.41;48.21
42247;BME280;27913;42.722;23.268;2023-04-21T16:11:47;94406.66;;;16.32;48.75
42247;BME280;27913;42.722;23.268;2023-04-21T16:14:16;94460.78;;;16.60;48.43
42247;BME280;27913;42.722;23.268;2023-04-21T16:16:42;94450.13;;;16.42;47.59
42247;BME280;27913;42.722;23.268;2023-04-21T16:19:08;94258.84;;;15.10;47.89
42247;BME280;27913;42.722;23.268;2023-04-21T16:21:34;94480.84;;;16.56;47.98
42247;BME280;27913;42.722;23.268;2023-04-21T16:24:00;94505.50;;;16.39;49.27
42247;BME280;27913;42.722;23.268;2023-04-21T16:26:26;94454.72;;;15.94;49.92
42247;BME280;27913;42.722;23.268;2023-04-21T16:28:51;94504.88;;;15.96;50.88
42247;BME280;27913;42.722;23.268;2023-04-21T16:31:19;94446.50;;;15.54;51.46
42247;BME280;27913;42.722;23.268;2023-04-21T16:33:45;94400.78;;;15.11;52.10
42247;BME280;27913;42.722;23.268;2023-04-21T16:36:11;94421.97;;;15.35;52.22
42247;BME280;27913;42.722;23.268;2023-04-21T16:38:36;94506.19;;;15.69;53.30
42247;BME280;27913;42.722;23.268;2023-04-21T16:41:02;94443.97;;;15.12;53.51
42247;BME280;27913;42.722;23.268;2023-04-21T16:43:27;94459.06;;;15.35;53.46
42247;BME280;27913;42.722;23.268;2023-04-21T16:45:53;94350.44;;;14.75;53.23
42247;BME280;27913;42.722;23.268;2023-04-21T16:48:19;94443.59;;;15.20;53.55
42247;BME280;27913;42.722;23.268;2023-04-21T16:50:44;94505.25;;;15.75;52.89
42247;BME280;27913;42.722;23.268;2023-04-21T16:53:36;94299.22;;;14.33;52.48
42247;BME280;27913;42.722;23.268;2023-04-21T16:59:52;94362.97;;;14.68;52.36
42247;BME280;27913;42.722;23.268;2023-04-21T17:05:59;94514.81;;;15.40;53.50
42247;BME280;27913;42.722;23.268;2023-04-21T17:09:05;94280.78;;;13.72;53.78
42247;BME280;27913;42.722;23.268;2023-04-21T17:20:10;94239.47;;;13.28;55.50
42247;BME280;27913;42.722;23.268;2023-04-21T17:23:29;94442.22;;;14.51;55.49
42247;BME280;27913;42.722;23.268;2023-04-21T17:25:57;94292.63;;;13.50;55.71
42247;BME280;27913;42.722;23.268;2023-04-21T17:28:41;94289.84;;;13.45;55.93
42247;BME280;27913;42.722;23.268;2023-04-21T17:31:16;94229.81;;;13.03;55.90
42247;BME280;27913;42.722;23.268;2023-04-21T17:33:43;94288.53;;;13.36;55.92
42247;BME280;27913;42.722;23.268;2023-04-21T17:36:31;94420.94;;;13.96;56.28
42247;BME280;27913;42.722;23.268;2023-04-21T17:38:59;94267.34;;;12.86;56.90
42247;BME280;27913;42.722;23.268;2023-04-21T17:41:33;94443.13;;;13.95;57.48
42247;BME280;27913;42.722;23.268;2023-04-21T17:43:58;94552.31;;;14.64;57.93
42247;BME280;27913;42.722;23.268;2023-04-21T17:46:25;94470.13;;;14.16;57.97
42247;BME280;27913;42.722;23.268;2023-04-21T17:48:50;94562.91;;;14.64;58.31
42247;BME280;27913;42.722;23.268;2023-04-21T17:51:16;94465.66;;;13.97;58.75
42247;BME280;27913;42.722;23.268;2023-04-21T17:53:44;94461.53;;;13.83;59.48
42247;BME280;27913;42.722;23.268;2023-04-21T17:56:11;94476.53;;;13.45;60.96
42247;BME280;27913;42.722;23.268;2023-04-21T17:58:37;94408.75;;;12.94;61.59
42247;BME280;27913;42.722;23.268;2023-04-21T18:01:04;94558.25;;;13.91;62.06
42247;BME280;27913;42.722;23.268;2023-04-21T18:03:31;94410.09;;;12.78;62.55
42247;BME280;27913;42.722;23.268;2023-04-21T18:05:56;94318.75;;;12.32;62.56
42247;BME280;27913;42.722;23.268;2023-04-21T18:08:22;94569.94;;;14.01;62.22
42247;BME280;27913;42.722;23.268;2023-04-21T18:10:48;94540.41;;;13.86;62.26
42247;BME280;27913;42.722;23.268;2023-04-21T18:13:14;94533.41;;;13.73;62.46
42247;BME280;27913;42.722;23.268;2023-04-21T18:15:42;94578.63;;;13.83;62.82
42247;BME280;27913;42.722;23.268;2023-04-21T18:18:11;94318.72;;;12.07;63.59
42247;BME280;27913;42.722;23.268;2023-04-21T18:20:36;94480.66;;;13.15;63.28
42247;BME280;27913;42.722;23.268;2023-04-21T18:23:02;94520.28;;;13.40;63.32
42247;BME280;27913;42.722;23.268;2023-04-21T18:25:27;94351.16;;;12.40;63.15
42247;BME280;27913;42.722;23.268;2023-04-21T18:27:53;94603.47;;;13.82;63.58
42247;BME280;27913;42.722;23.268;2023-04-21T18:30:24;94402.25;;;12.46;63.99
42247;BME280;27913;42.722;23.268;2023-04-21T18:32:50;94337.38;;;11.99;64.24
42247;BME280;27913;42.722;23.268;2023-04-21T18:35:15;94312.72;;;11.93;64.19
42247;BME280;27913;42.722;23.268;2023-04-21T18:37:41;94327.06;;;11.97;63.85
42247;BME280;27913;42.722;23.268;2023-04-21T18:40:08;94511.34;;;13.09;63.99
42247;BME280;27913;42.722;23.268;2023-04-21T18:42:33;94492.66;;;12.85;63.71
42247;BME280;27913;42.722;23.268;2023-04-21T18:44:59;94493.13;;;12.75;63.88
42247;BME280;27913;42.722;23.268;2023-04-21T18:47:26;94343.00;;;11.77;63.37
42247;BME280;27913;42.722;23.268;2023-04-21T18:49:52;94359.72;;;11.96;62.96
42247;BME280;27913;42.722;23.268;2023-04-21T18:52:17;94403.41;;;12.17;62.97
42247;BME280;27913;42.722;23.268;2023-04-21T18:54:43;94422.84;;;12.23;63.59
42247;BME280;27913;42.722;23.268;2023-04-21T18:57:08;94622.03;;;13.43;63.56
42247;BME280;27913;42.722;23.268;2023-04-21T18:59:34;94353.78;;;11.68;63.22
42247;BME280;27913;42.722;23.268;2023-04-21T19:02:00;94369.38;;;11.63;63.58
42247;BME280;27913;42.722;23.268;2023-04-21T19:04:28;94566.94;;;12.89;63.35
42247;BME280;27913;42.722;23.268;2023-04-21T19:07:00;94370.13;;;11.84;62.92
42247;BME280;27913;42.722;23.268;2023-04-21T19:09:34;94395.97;;;12.01;62.22
42247;BME280;27913;42.722;23.268;2023-04-21T19:11:59;94484.53;;;12.54;62.48
42247;BME280;27913;42.722;23.268;2023-04-21T19:14:57;94343.03;;;11.63;62.56
42247;BME280;27913;42.722;23.268;2023-04-21T19:17:30;94382.22;;;11.92;62.49
42247;BME280;27913;42.722;23.268;2023-04-21T19:19:59;94353.31;;;11.78;62.39
42247;BME280;27913;42.722;23.268;2023-04-21T19:22:27;94606.66;;;13.33;62.60
42247;BME280;27913;42.722;23.268;2023-04-21T19:24:56;94631.03;;;13.35;62.44
42247;BME280;27913;42.722;23.268;2023-04-21T19:27:21;94493.84;;;12.57;62.73
42247;BME280;27913;42.722;23.268;2023-04-21T19:29:47;94628.56;;;13.40;63.02
42247;BME280;27913;42.722;23.268;2023-04-21T19:32:13;94423.50;;;12.12;63.17
42247;BME280;27913;42.722;23.268;2023-04-21T19:34:39;94641.53;;;13.42;62.67
42247;BME280;27913;42.722;23.268;2023-04-21T19:37:05;94634.63;;;13.41;62.46
42247;BME280;27913;42.722;23.268;2023-04-21T19:39:31;94634.19;;;13.44;62.66
42247;BME280;27913;42.722;23.268;2023-04-21T19:41:57;94577.63;;;13.01;62.45
42247;BME280;27913;42.722;23.268;2023-04-21T19:44:22;94577.09;;;12.85;62.93
42247;BME280;27913;42.722;23.268;2023-04-21T19:46:48;94636.16;;;12.91;64.17
42247;BME280;27913;42.722;23.268;2023-04-21T19:49:13;94632.66;;;12.97;64.18
42247;BME280;27913;42.722;23.268;2023-04-21T19:51:39;94630.66;;;12.92;64.62
42247;BME280;27913;42.722;23.268;2023-04-21T19:54:05;94465.97;;;11.83;64.87
42247;BME280;27913;42.722;23.268;2023-04-21T19:56:31;94534.44;;;12.10;65.86
42247;BME280;27913;42.722;23.268;2023-04-21T19:58:57;94523.66;;;12.05;66.26
42247;BME280;27913;42.722;23.268;2023-04-21T20:01:22;94604.66;;;12.50;66.54
42247;BME280;27913;42.722;23.268;2023-04-21T20:03:48;94352.19;;;10.81;66.27
42247;BME280;27913;42.722;23.268;2023-04-21T20:06:14;94639.50;;;12.66;66.63
42247;BME280;27913;42.722;23.268;2023-04-21T20:08:40;94371.78;;;10.92;66.71
42247;BME280;27913;42.722;23.268;2023-04-21T20:11:05;94640.06;;;12.75;66.88
42247;BME280;27913;42.722;23.268;2023-04-21T20:13:31;94481.78;;;11.76;66.97
42247;BME280;27913;42.722;23.268;2023-04-21T20:15:56;94417.06;;;11.34;66.99
42247;BME280;27913;42.722;23.268;2023-04-21T20:18:22;94588.06;;;12.36;67.21
42247;BME280;27913;42.722;23.268;2023-04-21T20:20:47;94649.06;;;12.53;67.43
42247;BME280;27913;42.722;23.268;2023-04-21T20:23:13;94519.09;;;11.53;68.29
42247;BME280;27913;42.722;23.268;2023-04-21T20:25:38;94602.78;;;11.64;69.38
42247;BME280;27913;42.722;23.268;2023-04-21T20:28:04;94613.72;;;11.54;70.11
42247;BME280;27913;42.722;23.268;2023-04-21T20:30:30;94584.53;;;11.15;70.89
42247;BME280;27913;42.722;23.268;2023-04-21T20:32:55;94588.78;;;11.16;71.03
42247;BME280;27913;42.722;23.268;2023-04-21T20:35:21;94670.84;;;11.67;70.79
42247;BME280;27913;42.722;23.268;2023-04-21T20:37:46;94496.41;;;10.63;70.99
42247;BME280;27913;42.722;23.268;2023-04-21T20:40:12;94608.22;;;11.35;70.71
42247;BME280;27913;42.722;23.268;2023-04-21T20:42:39;94631.53;;;11.45;70.84